WetterOnline ( http://www.wetteronline.de )

Wetter aktuell Denkendorf

Aktuelles Wetter: Gelbelsee (539m)

6-stündlich | Neueste Meldungen
Ortszeit Temperatur Wetter
Fr, 20.07. 2:00 18.3° C wolkenlos
Do, 19.07. 20:00 25.1° C wolkenlos
Do, 19.07. 14:00 24.8° C leicht bewölkt
Do, 19.07. 8:00 17.3° C wolkenlos
Do, 19.07. 2:00 16.8° C fast wolkenlos
Mi, 18.07. 20:00 24.4° C wolkenlos
Mi, 18.07. 14:00 25.1° C leicht bewölkt
Mi, 18.07. 8:00 18.8° C wolkenlos
Ortszeit Temperatur Wetter
Fr, 20.07. 4:30 15.7° C fast wolkenlos
Fr, 20.07. 4:20 15.7° C fast wolkenlos
Fr, 20.07. 4:10 16.5° C fast wolkenlos
Fr, 20.07. 4:00 17.1° C wolkenlos
Fr, 20.07. 3:50 17.1° C wolkenlos
Fr, 20.07. 3:40 16.8° C wolkenlos
Fr, 20.07. 3:30 16.9° C leicht bewölkt
Fr, 20.07. 3:00 17.3° C wolkig
Fr, 20.07. 2:30 16.8° C leicht bewölkt
Fr, 20.07. 2:00 18.3° C wolkenlos
Fr, 20.07. 1:30 16.7° C fast wolkenlos
Ortszeit Relative Feuchte Sichtweite
Fr, 20.07. 2:00 53% 50 km
Do, 19.07. 20:00 38% 50 km
Do, 19.07. 14:00 38% 30 km
Do, 19.07. 8:00 64% 35 km
Do, 19.07. 2:00 62% 50 km
Mi, 18.07. 20:00 41% 45 km
Mi, 18.07. 14:00 46% 19 km
Mi, 18.07. 8:00 65% 11 km
Ortszeit Relative Feuchte Sichtweite
Fr, 20.07. 4:30 63% 55 km
Fr, 20.07. 4:20 63% -
Fr, 20.07. 4:10 60% -
Fr, 20.07. 4:00 58% 55 km
Fr, 20.07. 3:50 58% -
Fr, 20.07. 3:40 58% -
Fr, 20.07. 3:30 57% 45 km
Fr, 20.07. 3:00 55% 50 km
Fr, 20.07. 2:30 58% 55 km
Fr, 20.07. 2:00 53% 50 km
Fr, 20.07. 1:30 62% 50 km
Ortszeit Niederschlagsmenge Niederschlagsart
Fr, 20.07. 2:00 0.0 l/m2 in 6 Std. -
Do, 19.07. 20:00 0.0 l/m2 in 12 Std. -
Do, 19.07. 14:00 0.0 l/m2 in 6 Std. -
Do, 19.07. 8:00 0.0 l/m2 in 12 Std. -
Do, 19.07. 2:00 0.0 l/m2 in 6 Std. -
Mi, 18.07. 20:00 0.0 l/m2 in 12 Std. -
Mi, 18.07. 14:00 0.0 l/m2 in 6 Std. -
Mi, 18.07. 8:00 0.0 l/m2 in 12 Std. -
Ortszeit Niederschlagsmenge Niederschlagsart
Fr, 20.07. 4:30 0.0 l/m2 in 1 Std. -
Fr, 20.07. 4:20 keine Meldung -
Fr, 20.07. 4:10 keine Meldung -
Fr, 20.07. 4:00 0.0 l/m2 in 1 Std. -
Fr, 20.07. 3:50 keine Meldung -
Fr, 20.07. 3:40 keine Meldung -
Fr, 20.07. 3:30 0.0 l/m2 in 1 Std. -
Fr, 20.07. 3:00 0.0 l/m2 in 1 Std. -
Fr, 20.07. 2:30 0.0 l/m2 in 1 Std. -
Fr, 20.07. 2:00 0.0 l/m2 in 1 Std. -
Fr, 20.07. 1:30 0.0 l/m2 in 1 Std. -
Ortszeit Stärke Spitze Richtung
km/h Bft. km/h Grad Sektor
Fr, 20.07. 2:00 7 2 11 10° N
Do, 19.07. 20:00 4 1 25 320° NW
Do, 19.07. 14:00 7 2 39 30° NO
Do, 19.07. 8:00 9 2 15 10° N
Do, 19.07. 2:00 9 2 20 360° N
Mi, 18.07. 20:00 11 2 33 330° NW
Mi, 18.07. 14:00 15 3 26 280° W
Mi, 18.07. 8:00 11 2 25 310° NW
Ortszeit Stärke Spitze Richtung
km/h Bft. km/h Grad Sektor
Fr, 20.07. 4:30 6 1 7 50° NO
Fr, 20.07. 4:20 6 1 - 50° NO
Fr, 20.07. 4:10 6 1 - 60° NO
Fr, 20.07. 4:00 7 2 11 50° NO
Fr, 20.07. 3:50 7 2 - 50° NO
Fr, 20.07. 3:40 7 2 - 40° NO
Fr, 20.07. 3:30 7 2 11 40° NO
Fr, 20.07. 3:00 7 2 11 30° NO
Fr, 20.07. 2:30 6 1 9 20° N
Fr, 20.07. 2:00 7 2 9 10° N
Fr, 20.07. 1:30 6 1 7 10° N
Ortszeit Untergrenze Bedeckung Gattung
total tief tief mittel hoch
Fr, 20.07. 2:00 - 0/8 0/8 - - -
Do, 19.07. 20:00 - 0/8 0/8 - - -
Do, 19.07. 14:00 10500 m 6/8 0/8 - - -
Do, 19.07. 8:00 - 0/8 0/8 - - -
Do, 19.07. 2:00 3300 m 1/8 1/8 - - -
Mi, 18.07. 20:00 - 0/8 0/8 - - -
Mi, 18.07. 14:00 2700 m 1/8 5/8 - - -
Mi, 18.07. 8:00 - 0/8 0/8 - - -
Ortszeit Bedeckungsgrad in Achtel und Wolkenuntergrenze
Fr, 20.07. 4:30 1(9000m)
Fr, 20.07. 4:20 1(9000m)
Fr, 20.07. 4:10 1(9000m)
Fr, 20.07. 4:00 2(9000m)
Fr, 20.07. 3:50 keine Wolken
Fr, 20.07. 3:40 keine Wolken
Fr, 20.07. 3:30 3(9000m) 3(9000m)
Fr, 20.07. 3:00 5(9000m) 7(9000m)
Fr, 20.07. 2:30 6(9000m)
Fr, 20.07. 2:00 keine Wolken
Fr, 20.07. 1:30 2(9000m)
Ortszeit Luftdruck NN (hPa) Tendenz (hPa in 3 Std.)
Fr, 20.07. 2:00 1016 0,0
Do, 19.07. 20:00 1014 - 0,6
Do, 19.07. 14:00 1016 - 0,5
Do, 19.07. 8:00 1017 + 0,4
Do, 19.07. 2:00 1017 + 0,5
Mi, 18.07. 20:00 1014 - 0,4
Mi, 18.07. 14:00 1015 - 0,4
Mi, 18.07. 8:00 1016 + 0,8
Ortszeit Luftdruck NN (hPa) Tendenz (hPa in 3 Std.)
Fr, 20.07. 4:30 1015 - 1,0
Fr, 20.07. 4:20 1015 keine Meldung
Fr, 20.07. 4:10 1015 keine Meldung
Fr, 20.07. 4:00 1015 - 0,9
Fr, 20.07. 3:50 1015 keine Meldung
Fr, 20.07. 3:40 1015 keine Meldung
Fr, 20.07. 3:30 1015 - 0,9
Fr, 20.07. 3:00 1015 - 0,7
Fr, 20.07. 2:30 1016 - 0,3
Fr, 20.07. 2:00 1016 0,0
Fr, 20.07. 1:30 1016 + 0,2
Ortszeit Schneehöhe (cm)
Fr, 20.07. 2:00 -
Do, 19.07. 20:00 -
Do, 19.07. 14:00 -
Do, 19.07. 8:00 -
Do, 19.07. 2:00 -
Mi, 18.07. 20:00 -
Mi, 18.07. 14:00 -
Mi, 18.07. 8:00 -
Ortszeit Schneehöhe (cm)
Fr, 20.07. 4:30 -
Fr, 20.07. 4:20 -
Fr, 20.07. 4:10 -
Fr, 20.07. 4:00 -
Fr, 20.07. 3:50 -
Fr, 20.07. 3:40 -
Fr, 20.07. 3:30 -
Fr, 20.07. 3:00 -
Fr, 20.07. 2:30 -
Fr, 20.07. 2:00 -
Fr, 20.07. 1:30 -
Link zu dieser Seite / Seite empfehlen

Das Wetter in ...